sensor_id;sensor_type;location;lat;lon;timestamp;temperature;humidity
7902;DHT22;3996;49.674;10.716;2024-02-26T00:01:23;4.70;25.70
7902;DHT22;3996;49.674;10.716;2024-02-26T00:03:49;4.60;26.00
7902;DHT22;3996;49.674;10.716;2024-02-26T00:06:15;4.50;26.20
7902;DHT22;3996;49.674;10.716;2024-02-26T00:08:41;4.50;26.30
7902;DHT22;3996;49.674;10.716;2024-02-26T00:11:06;4.50;26.20
7902;DHT22;3996;49.674;10.716;2024-02-26T00:13:32;4.50;26.40
7902;DHT22;3996;49.674;10.716;2024-02-26T00:15:58;4.50;26.40
7902;DHT22;3996;49.674;10.716;2024-02-26T00:18:23;4.40;26.20
7902;DHT22;3996;49.674;10.716;2024-02-26T00:20:49;4.30;26.30
7902;DHT22;3996;49.674;10.716;2024-02-26T00:23:17;4.30;26.50
7902;DHT22;3996;49.674;10.716;2024-02-26T00:25:43;4.30;26.70
7902;DHT22;3996;49.674;10.716;2024-02-26T00:28:10;4.30;26.40
7902;DHT22;3996;49.674;10.716;2024-02-26T00:30:35;4.30;26.50
7902;DHT22;3996;49.674;10.716;2024-02-26T00:33:01;4.30;26.60
7902;DHT22;3996;49.674;10.716;2024-02-26T00:35:27;4.20;26.50
7902;DHT22;3996;49.674;10.716;2024-02-26T00:37:53;4.20;26.40
7902;DHT22;3996;49.674;10.716;2024-02-26T00:40:19;4.20;26.60
7902;DHT22;3996;49.674;10.716;2024-02-26T00:42:45;4.20;27.00
7902;DHT22;3996;49.674;10.716;2024-02-26T00:45:14;4.20;26.90
7902;DHT22;3996;49.674;10.716;2024-02-26T00:47:41;4.20;27.00
7902;DHT22;3996;49.674;10.716;2024-02-26T00:50:08;4.20;27.20
7902;DHT22;3996;49.674;10.716;2024-02-26T00:52:34;4.20;27.10
7902;DHT22;3996;49.674;10.716;2024-02-26T00:55:01;4.10;27.30
7902;DHT22;3996;49.674;10.716;2024-02-26T00:57:26;4.10;27.30
7902;DHT22;3996;49.674;10.716;2024-02-26T00:59:52;4.10;27.20
7902;DHT22;3996;49.674;10.716;2024-02-26T01:02:17;4.10;27.00
7902;DHT22;3996;49.674;10.716;2024-02-26T01:04:43;4.10;26.80
7902;DHT22;3996;49.674;10.716;2024-02-26T01:07:09;4.10;27.00
7902;DHT22;3996;49.674;10.716;2024-02-26T01:09:34;4.10;27.00
7902;DHT22;3996;49.674;10.716;2024-02-26T01:12:00;4.10;27.10
7902;DHT22;3996;49.674;10.716;2024-02-26T01:14:25;4.00;27.70
7902;DHT22;3996;49.674;10.716;2024-02-26T01:16:51;4.00;28.00
7902;DHT22;3996;49.674;10.716;2024-02-26T01:19:17;4.10;27.60
7902;DHT22;3996;49.674;10.716;2024-02-26T01:21:42;4.20;27.80
7902;DHT22;3996;49.674;10.716;2024-02-26T01:24:08;4.20;27.90
7902;DHT22;3996;49.674;10.716;2024-02-26T01:26:33;4.20;28.10
7902;DHT22;3996;49.674;10.716;2024-02-26T01:28:59;4.20;28.20
7902;DHT22;3996;49.674;10.716;2024-02-26T01:31:24;4.10;28.50
7902;DHT22;3996;49.674;10.716;2024-02-26T01:33:50;4.20;28.60
7902;DHT22;3996;49.674;10.716;2024-02-26T01:36:15;4.20;28.60
7902;DHT22;3996;49.674;10.716;2024-02-26T01:38:44;4.20;28.80
7902;DHT22;3996;49.674;10.716;2024-02-26T01:41:09;4.30;29.00
7902;DHT22;3996;49.674;10.716;2024-02-26T01:43:35;4.30;29.00
7902;DHT22;3996;49.674;10.716;2024-02-26T01:46:00;4.30;29.20
7902;DHT22;3996;49.674;10.716;2024-02-26T01:48:26;4.30;29.80
7902;DHT22;3996;49.674;10.716;2024-02-26T01:50:52;4.30;29.60
7902;DHT22;3996;49.674;10.716;2024-02-26T01:53:19;4.20;29.70
7902;DHT22;3996;49.674;10.716;2024-02-26T01:55:45;4.30;30.00
7902;DHT22;3996;49.674;10.716;2024-02-26T01:58:11;4.30;30.10
7902;DHT22;3996;49.674;10.716;2024-02-26T02:00:37;4.30;30.60
7902;DHT22;3996;49.674;10.716;2024-02-26T02:03:04;4.30;30.40
7902;DHT22;3996;49.674;10.716;2024-02-26T02:05:30;4.30;30.30
7902;DHT22;3996;49.674;10.716;2024-02-26T02:07:56;4.40;30.60
7902;DHT22;3996;49.674;10.716;2024-02-26T02:10:22;4.30;30.60
7902;DHT22;3996;49.674;10.716;2024-02-26T02:12:50;4.40;30.90
7902;DHT22;3996;49.674;10.716;2024-02-26T02:15:16;4.40;31.00
7902;DHT22;3996;49.674;10.716;2024-02-26T02:17:42;4.40;31.10
7902;DHT22;3996;49.674;10.716;2024-02-26T02:20:17;4.40;31.50
7902;DHT22;3996;49.674;10.716;2024-02-26T02:22:44;4.40;31.50
7902;DHT22;3996;49.674;10.716;2024-02-26T02:25:10;4.50;31.50
7902;DHT22;3996;49.674;10.716;2024-02-26T02:27:36;4.50;31.70
7902;DHT22;3996;49.674;10.716;2024-02-26T02:30:02;4.40;32.00
7902;DHT22;3996;49.674;10.716;2024-02-26T02:32:29;4.50;32.30
7902;DHT22;3996;49.674;10.716;2024-02-26T02:34:55;4.50;32.10
7902;DHT22;3996;49.674;10.716;2024-02-26T02:37:21;4.50;32.30
7902;DHT22;3996;49.674;10.716;2024-02-26T02:39:47;4.50;32.10
7902;DHT22;3996;49.674;10.716;2024-02-26T02:42:12;4.50;32.30
7902;DHT22;3996;49.674;10.716;2024-02-26T02:44:38;4.50;32.60
7902;DHT22;3996;49.674;10.716;2024-02-26T02:47:03;4.60;32.70
7902;DHT22;3996;49.674;10.716;2024-02-26T02:49:29;4.60;32.70
7902;DHT22;3996;49.674;10.716;2024-02-26T02:51:54;4.60;33.20
7902;DHT22;3996;49.674;10.716;2024-02-26T02:54:22;4.60;33.00
7902;DHT22;3996;49.674;10.716;2024-02-26T02:56:48;4.70;33.00
7902;DHT22;3996;49.674;10.716;2024-02-26T02:59:14;4.70;33.20
7902;DHT22;3996;49.674;10.716;2024-02-26T03:01:39;4.70;33.50
7902;DHT22;3996;49.674;10.716;2024-02-26T03:04:05;4.70;33.50
7902;DHT22;3996;49.674;10.716;2024-02-26T03:06:30;4.70;33.80
7902;DHT22;3996;49.674;10.716;2024-02-26T03:08:56;4.70;33.80
7902;DHT22;3996;49.674;10.716;2024-02-26T03:11:21;4.80;34.00
7902;DHT22;3996;49.674;10.716;2024-02-26T03:13:47;4.70;34.10
7902;DHT22;3996;49.674;10.716;2024-02-26T03:16:13;4.80;33.90
7902;DHT22;3996;49.674;10.716;2024-02-26T03:18:39;4.80;34.20
7902;DHT22;3996;49.674;10.716;2024-02-26T03:21:05;4.80;34.60
7902;DHT22;3996;49.674;10.716;2024-02-26T03:23:31;4.80;34.50
7902;DHT22;3996;49.674;10.716;2024-02-26T03:25:58;4.80;34.70
7902;DHT22;3996;49.674;10.716;2024-02-26T03:28:23;4.80;34.60
7902;DHT22;3996;49.674;10.716;2024-02-26T03:30:49;4.90;34.70
7902;DHT22;3996;49.674;10.716;2024-02-26T03:33:15;4.90;34.80
7902;DHT22;3996;49.674;10.716;2024-02-26T03:35:40;4.90;34.90
7902;DHT22;3996;49.674;10.716;2024-02-26T03:38:06;4.90;34.70
7902;DHT22;3996;49.674;10.716;2024-02-26T03:40:31;4.90;34.90
7902;DHT22;3996;49.674;10.716;2024-02-26T03:42:58;4.90;35.20
7902;DHT22;3996;49.674;10.716;2024-02-26T03:45:23;4.90;35.40
7902;DHT22;3996;49.674;10.716;2024-02-26T03:47:51;4.90;35.30
7902;DHT22;3996;49.674;10.716;2024-02-26T03:50:16;4.90;35.20
7902;DHT22;3996;49.674;10.716;2024-02-26T03:52:42;4.90;35.20
7902;DHT22;3996;49.674;10.716;2024-02-26T03:55:08;4.90;35.10
7902;DHT22;3996;49.674;10.716;2024-02-26T03:57:35;4.90;36.10
7902;DHT22;3996;49.674;10.716;2024-02-26T04:00:01;4.90;35.20
7902;DHT22;3996;49.674;10.716;2024-02-26T04:02:26;4.90;35.40
7902;DHT22;3996;49.674;10.716;2024-02-26T04:04:52;4.90;35.40
7902;DHT22;3996;49.674;10.716;2024-02-26T04:07:18;4.90;35.30
7902;DHT22;3996;49.674;10.716;2024-02-26T04:09:44;4.80;35.40
7902;DHT22;3996;49.674;10.716;2024-02-26T04:12:09;4.80;35.40
7902;DHT22;3996;49.674;10.716;2024-02-26T04:14:36;4.80;35.40
7902;DHT22;3996;49.674;10.716;2024-02-26T04:17:02;4.80;35.40
7902;DHT22;3996;49.674;10.716;2024-02-26T04:19:28;4.80;35.30
7902;DHT22;3996;49.674;10.716;2024-02-26T04:21:54;4.80;35.10
7902;DHT22;3996;49.674;10.716;2024-02-26T04:24:20;4.90;35.30
7902;DHT22;3996;49.674;10.716;2024-02-26T04:26:45;4.90;35.30
7902;DHT22;3996;49.674;10.716;2024-02-26T04:29:11;4.70;36.00
7902;DHT22;3996;49.674;10.716;2024-02-26T04:31:40;4.70;36.90
7902;DHT22;3996;49.674;10.716;2024-02-26T04:34:08;4.80;36.20
7902;DHT22;3996;49.674;10.716;2024-02-26T04:36:33;4.80;36.10
7902;DHT22;3996;49.674;10.716;2024-02-26T04:38:59;4.90;35.90
7902;DHT22;3996;49.674;10.716;2024-02-26T04:41:24;4.90;35.60
7902;DHT22;3996;49.674;10.716;2024-02-26T04:43:50;4.90;35.30
7902;DHT22;3996;49.674;10.716;2024-02-26T04:46:15;4.90;35.60
7902;DHT22;3996;49.674;10.716;2024-02-26T04:48:41;4.90;35.30
7902;DHT22;3996;49.674;10.716;2024-02-26T04:51:11;5.00;35.80
7902;DHT22;3996;49.674;10.716;2024-02-26T04:53:37;4.90;35.80
7902;DHT22;3996;49.674;10.716;2024-02-26T04:56:03;5.00;35.60
7902;DHT22;3996;49.674;10.716;2024-02-26T04:58:29;4.90;35.70
7902;DHT22;3996;49.674;10.716;2024-02-26T05:00:54;4.90;36.10
7902;DHT22;3996;49.674;10.716;2024-02-26T05:03:21;4.90;35.90
7902;DHT22;3996;49.674;10.716;2024-02-26T05:05:46;4.90;35.80
7902;DHT22;3996;49.674;10.716;2024-02-26T05:08:12;4.90;35.40
7902;DHT22;3996;49.674;10.716;2024-02-26T05:10:38;4.90;34.60
7902;DHT22;3996;49.674;10.716;2024-02-26T05:13:06;5.00;34.70
7902;DHT22;3996;49.674;10.716;2024-02-26T05:15:32;5.00;34.50
7902;DHT22;3996;49.674;10.716;2024-02-26T05:17:57;5.00;34.60
7902;DHT22;3996;49.674;10.716;2024-02-26T05:20:23;5.00;34.20
7902;DHT22;3996;49.674;10.716;2024-02-26T05:22:49;5.00;34.20
7902;DHT22;3996;49.674;10.716;2024-02-26T05:25:16;5.00;34.20
7902;DHT22;3996;49.674;10.716;2024-02-26T05:27:42;5.00;34.60
7902;DHT22;3996;49.674;10.716;2024-02-26T05:30:09;5.00;34.30
7902;DHT22;3996;49.674;10.716;2024-02-26T05:32:35;5.00;34.30
7902;DHT22;3996;49.674;10.716;2024-02-26T05:35:00;5.00;34.40
7902;DHT22;3996;49.674;10.716;2024-02-26T05:37:28;4.90;34.80
7902;DHT22;3996;49.674;10.716;2024-02-26T05:39:54;5.00;34.80
7902;DHT22;3996;49.674;10.716;2024-02-26T05:42:19;4.90;35.20
7902;DHT22;3996;49.674;10.716;2024-02-26T05:44:45;4.90;35.20
7902;DHT22;3996;49.674;10.716;2024-02-26T05:47:10;4.80;35.20
7902;DHT22;3996;49.674;10.716;2024-02-26T05:49:36;4.80;35.30
7902;DHT22;3996;49.674;10.716;2024-02-26T05:52:01;4.90;35.50
7902;DHT22;3996;49.674;10.716;2024-02-26T05:54:27;4.90;35.30
7902;DHT22;3996;49.674;10.716;2024-02-26T05:56:53;4.90;35.00
7902;DHT22;3996;49.674;10.716;2024-02-26T05:59:18;4.80;35.90
7902;DHT22;3996;49.674;10.716;2024-02-26T06:01:44;4.80;35.60
7902;DHT22;3996;49.674;10.716;2024-02-26T06:04:09;4.80;35.10
7902;DHT22;3996;49.674;10.716;2024-02-26T06:06:35;4.80;35.00
7902;DHT22;3996;49.674;10.716;2024-02-26T06:09:01;4.80;35.40
7902;DHT22;3996;49.674;10.716;2024-02-26T06:11:27;4.90;34.80
7902;DHT22;3996;49.674;10.716;2024-02-26T06:13:52;4.90;34.80
7902;DHT22;3996;49.674;10.716;2024-02-26T06:16:18;4.70;36.30
7902;DHT22;3996;49.674;10.716;2024-02-26T06:18:43;4.60;36.80
7902;DHT22;3996;49.674;10.716;2024-02-26T06:21:10;4.80;36.50
7902;DHT22;3996;49.674;10.716;2024-02-26T06:23:36;4.90;35.80
7902;DHT22;3996;49.674;10.716;2024-02-26T06:26:02;4.90;36.00
7902;DHT22;3996;49.674;10.716;2024-02-26T06:28:27;4.90;35.80
7902;DHT22;3996;49.674;10.716;2024-02-26T06:30:55;5.00;36.10
7902;DHT22;3996;49.674;10.716;2024-02-26T06:33:21;5.00;35.90
7902;DHT22;3996;49.674;10.716;2024-02-26T06:35:47;5.00;36.20
7902;DHT22;3996;49.674;10.716;2024-02-26T06:38:12;5.00;36.40
7902;DHT22;3996;49.674;10.716;2024-02-26T06:40:39;5.00;37.10
7902;DHT22;3996;49.674;10.716;2024-02-26T06:43:05;5.00;36.80
7902;DHT22;3996;49.674;10.716;2024-02-26T06:45:31;5.00;36.30
7902;DHT22;3996;49.674;10.716;2024-02-26T06:47:56;5.10;36.70
7902;DHT22;3996;49.674;10.716;2024-02-26T06:50:22;5.10;36.80
7902;DHT22;3996;49.674;10.716;2024-02-26T06:52:48;5.10;37.20
7902;DHT22;3996;49.674;10.716;2024-02-26T06:55:13;5.10;37.30
7902;DHT22;3996;49.674;10.716;2024-02-26T06:57:39;5.10;38.20
7902;DHT22;3996;49.674;10.716;2024-02-26T07:00:05;5.20;37.30
7902;DHT22;3996;49.674;10.716;2024-02-26T07:02:31;5.20;37.60
7902;DHT22;3996;49.674;10.716;2024-02-26T07:04:56;5.20;37.30
7902;DHT22;3996;49.674;10.716;2024-02-26T07:07:24;5.30;37.40
7902;DHT22;3996;49.674;10.716;2024-02-26T07:09:49;5.40;37.00
7902;DHT22;3996;49.674;10.716;2024-02-26T07:12:15;5.50;36.60
7902;DHT22;3996;49.674;10.716;2024-02-26T07:14:41;5.50;36.70
7902;DHT22;3996;49.674;10.716;2024-02-26T07:17:07;5.60;36.10
7902;DHT22;3996;49.674;10.716;2024-02-26T07:19:33;5.60;35.50
7902;DHT22;3996;49.674;10.716;2024-02-26T07:21:59;5.60;35.40
7902;DHT22;3996;49.674;10.716;2024-02-26T07:24:27;5.60;35.10
7902;DHT22;3996;49.674;10.716;2024-02-26T07:26:53;5.60;36.40
7902;DHT22;3996;49.674;10.716;2024-02-26T07:29:20;5.70;36.20
7902;DHT22;3996;49.674;10.716;2024-02-26T07:31:47;5.70;35.20
7902;DHT22;3996;49.674;10.716;2024-02-26T07:34:12;5.70;34.40
7902;DHT22;3996;49.674;10.716;2024-02-26T07:36:39;5.70;34.60
7902;DHT22;3996;49.674;10.716;2024-02-26T07:39:05;5.70;33.10
7902;DHT22;3996;49.674;10.716;2024-02-26T07:41:30;5.60;33.60
7902;DHT22;3996;49.674;10.716;2024-02-26T07:43:56;5.70;34.40
7902;DHT22;3996;49.674;10.716;2024-02-26T07:46:22;5.70;35.40
7902;DHT22;3996;49.674;10.716;2024-02-26T07:48:47;5.80;35.30
7902;DHT22;3996;49.674;10.716;2024-02-26T07:51:13;5.80;35.00
7902;DHT22;3996;49.674;10.716;2024-02-26T07:53:39;5.90;36.10
7902;DHT22;3996;49.674;10.716;2024-02-26T07:56:05;5.90;35.40
7902;DHT22;3996;49.674;10.716;2024-02-26T07:58:32;6.00;35.30
7902;DHT22;3996;49.674;10.716;2024-02-26T08:00:58;6.00;33.80
7902;DHT22;3996;49.674;10.716;2024-02-26T08:03:24;6.00;33.60
7902;DHT22;3996;49.674;10.716;2024-02-26T08:05:51;6.00;34.10
7902;DHT22;3996;49.674;10.716;2024-02-26T08:08:17;6.00;34.30
7902;DHT22;3996;49.674;10.716;2024-02-26T08:10:42;6.00;33.70
7902;DHT22;3996;49.674;10.716;2024-02-26T08:13:09;6.00;34.20
7902;DHT22;3996;49.674;10.716;2024-02-26T08:15:35;6.10;32.70
7902;DHT22;3996;49.674;10.716;2024-02-26T08:18:03;6.10;31.30
7902;DHT22;3996;49.674;10.716;2024-02-26T08:20:29;6.10;30.90
7902;DHT22;3996;49.674;10.716;2024-02-26T08:22:55;6.20;32.70
7902;DHT22;3996;49.674;10.716;2024-02-26T08:25:22;6.30;29.80
7902;DHT22;3996;49.674;10.716;2024-02-26T08:27:47;6.30;30.40
7902;DHT22;3996;49.674;10.716;2024-02-26T08:30:14;6.30;31.20
7902;DHT22;3996;49.674;10.716;2024-02-26T08:32:45;6.30;29.80
7902;DHT22;3996;49.674;10.716;2024-02-26T08:35:11;6.30;30.60
7902;DHT22;3996;49.674;10.716;2024-02-26T08:37:37;6.50;30.00
7902;DHT22;3996;49.674;10.716;2024-02-26T08:40:03;6.60;30.50
7902;DHT22;3996;49.674;10.716;2024-02-26T08:42:29;6.70;30.20
7902;DHT22;3996;49.674;10.716;2024-02-26T08:44:55;6.70;30.10
7902;DHT22;3996;49.674;10.716;2024-02-26T08:47:20;6.70;29.80
7902;DHT22;3996;49.674;10.716;2024-02-26T08:49:46;6.70;29.50
7902;DHT22;3996;49.674;10.716;2024-02-26T08:52:12;6.80;29.70
7902;DHT22;3996;49.674;10.716;2024-02-26T08:54:37;7.00;30.00
7902;DHT22;3996;49.674;10.716;2024-02-26T08:57:03;7.10;30.00
7902;DHT22;3996;49.674;10.716;2024-02-26T08:59:29;7.20;28.70
7902;DHT22;3996;49.674;10.716;2024-02-26T09:01:55;7.20;27.90
7902;DHT22;3996;49.674;10.716;2024-02-26T09:04:20;7.20;27.50
7902;DHT22;3996;49.674;10.716;2024-02-26T09:06:46;7.30;26.40
7902;DHT22;3996;49.674;10.716;2024-02-26T09:09:12;7.50;27.10
7902;DHT22;3996;49.674;10.716;2024-02-26T09:11:38;7.90;24.80
7902;DHT22;3996;49.674;10.716;2024-02-26T09:14:03;7.80;24.10
7902;DHT22;3996;49.674;10.716;2024-02-26T09:16:29;7.90;22.80
7902;DHT22;3996;49.674;10.716;2024-02-26T09:18:56;8.00;23.70
7902;DHT22;3996;49.674;10.716;2024-02-26T09:21:22;8.20;22.80
7902;DHT22;3996;49.674;10.716;2024-02-26T09:23:51;8.40;21.30
7902;DHT22;3996;49.674;10.716;2024-02-26T09:26:17;8.50;21.20
7902;DHT22;3996;49.674;10.716;2024-02-26T09:28:44;8.30;20.40
7902;DHT22;3996;49.674;10.716;2024-02-26T09:31:10;8.10;21.80
7902;DHT22;3996;49.674;10.716;2024-02-26T09:33:35;7.90;22.00
7902;DHT22;3996;49.674;10.716;2024-02-26T09:36:01;7.70;22.40
7902;DHT22;3996;49.674;10.716;2024-02-26T09:38:27;7.70;23.90
7902;DHT22;3996;49.674;10.716;2024-02-26T09:40:58;7.70;22.80
7902;DHT22;3996;49.674;10.716;2024-02-26T09:43:25;7.60;22.60
7902;DHT22;3996;49.674;10.716;2024-02-26T09:45:54;7.70;23.40
7902;DHT22;3996;49.674;10.716;2024-02-26T09:48:22;7.80;23.40
7902;DHT22;3996;49.674;10.716;2024-02-26T09:50:49;7.80;23.40
7902;DHT22;3996;49.674;10.716;2024-02-26T09:53:15;7.90;25.20
7902;DHT22;3996;49.674;10.716;2024-02-26T09:55:42;8.10;26.00
7902;DHT22;3996;49.674;10.716;2024-02-26T09:58:10;8.30;25.90
7902;DHT22;3996;49.674;10.716;2024-02-26T10:00:38;8.50;25.30
7902;DHT22;3996;49.674;10.716;2024-02-26T10:03:05;8.70;24.40
7902;DHT22;3996;49.674;10.716;2024-02-26T10:05:35;8.80;24.10
7902;DHT22;3996;49.674;10.716;2024-02-26T10:08:04;8.70;21.70
7902;DHT22;3996;49.674;10.716;2024-02-26T10:10:30;8.80;21.00
7902;DHT22;3996;49.674;10.716;2024-02-26T10:12:59;9.00;20.60
7902;DHT22;3996;49.674;10.716;2024-02-26T10:15:25;9.00;18.70
7902;DHT22;3996;49.674;10.716;2024-02-26T10:17:51;9.20;19.30
7902;DHT22;3996;49.674;10.716;2024-02-26T10:20:18;9.70;18.00
7902;DHT22;3996;49.674;10.716;2024-02-26T10:22:47;9.70;17.40
7902;DHT22;3996;49.674;10.716;2024-02-26T10:25:13;9.80;17.60
7902;DHT22;3996;49.674;10.716;2024-02-26T10:27:41;10.00;16.00
7902;DHT22;3996;49.674;10.716;2024-02-26T10:30:20;10.20;16.10
7902;DHT22;3996;49.674;10.716;2024-02-26T10:32:47;10.30;15.10
7902;DHT22;3996;49.674;10.716;2024-02-26T10:35:14;10.20;14.90
7902;DHT22;3996;49.674;10.716;2024-02-26T10:37:40;10.30;14.80
7902;DHT22;3996;49.674;10.716;2024-02-26T10:40:12;10.20;14.30
7902;DHT22;3996;49.674;10.716;2024-02-26T10:42:39;10.50;13.80
7902;DHT22;3996;49.674;10.716;2024-02-26T10:45:06;10.60;13.00
7902;DHT22;3996;49.674;10.716;2024-02-26T10:47:32;10.70;13.20
7902;DHT22;3996;49.674;10.716;2024-02-26T10:49:59;10.70;12.80
7902;DHT22;3996;49.674;10.716;2024-02-26T10:52:25;10.70;12.80
7902;DHT22;3996;49.674;10.716;2024-02-26T10:54:54;10.60;12.10
7902;DHT22;3996;49.674;10.716;2024-02-26T10:57:22;10.50;12.50
7902;DHT22;3996;49.674;10.716;2024-02-26T10:59:48;10.70;12.80
7902;DHT22;3996;49.674;10.716;2024-02-26T11:02:14;10.60;12.10
7902;DHT22;3996;49.674;10.716;2024-02-26T11:04:40;10.50;12.20
7902;DHT22;3996;49.674;10.716;2024-02-26T11:07:08;10.70;12.80
7902;DHT22;3996;49.674;10.716;2024-02-26T11:09:34;10.80;12.00
7902;DHT22;3996;49.674;10.716;2024-02-26T11:12:02;10.60;13.50
7902;DHT22;3996;49.674;10.716;2024-02-26T11:14:29;10.70;12.40
7902;DHT22;3996;49.674;10.716;2024-02-26T11:17:33;10.40;12.20
7902;DHT22;3996;49.674;10.716;2024-02-26T11:20:01;10.60;12.40
7902;DHT22;3996;49.674;10.716;2024-02-26T11:22:30;10.60;11.80
7902;DHT22;3996;49.674;10.716;2024-02-26T11:24:57;10.60;13.10
7902;DHT22;3996;49.674;10.716;2024-02-26T11:27:26;10.90;12.70
7902;DHT22;3996;49.674;10.716;2024-02-26T11:29:55;11.10;11.40
7902;DHT22;3996;49.674;10.716;2024-02-26T11:32:23;11.20;13.40
7902;DHT22;3996;49.674;10.716;2024-02-26T11:34:49;11.50;12.10
7902;DHT22;3996;49.674;10.716;2024-02-26T11:37:16;11.30;9.60
7902;DHT22;3996;49.674;10.716;2024-02-26T11:39:43;11.20;10.00
7902;DHT22;3996;49.674;10.716;2024-02-26T11:42:14;10.80;9.90
7902;DHT22;3996;49.674;10.716;2024-02-26T11:44:39;10.60;10.70
7902;DHT22;3996;49.674;10.716;2024-02-26T11:47:18;10.60;10.70
7902;DHT22;3996;49.674;10.716;2024-02-26T11:49:43;10.70;12.10
7902;DHT22;3996;49.674;10.716;2024-02-26T11:52:10;10.80;10.60
7902;DHT22;3996;49.674;10.716;2024-02-26T11:54:59;10.70;10.70
7902;DHT22;3996;49.674;10.716;2024-02-26T12:02:50;10.50;10.70
7902;DHT22;3996;49.674;10.716;2024-02-26T12:05:31;10.60;11.50
7902;DHT22;3996;49.674;10.716;2024-02-26T12:08:05;10.40;10.80
7902;DHT22;3996;49.674;10.716;2024-02-26T12:10:32;10.30;11.00
7902;DHT22;3996;49.674;10.716;2024-02-26T12:13:08;10.30;12.60
7902;DHT22;3996;49.674;10.716;2024-02-26T12:15:39;10.40;11.00
7902;DHT22;3996;49.674;10.716;2024-02-26T12:18:06;10.60;12.70
7902;DHT22;3996;49.674;10.716;2024-02-26T12:20:36;10.80;12.80
7902;DHT22;3996;49.674;10.716;2024-02-26T12:23:03;11.00;11.60
7902;DHT22;3996;49.674;10.716;2024-02-26T12:25:32;11.00;12.50
7902;DHT22;3996;49.674;10.716;2024-02-26T12:27:59;11.20;12.00
7902;DHT22;3996;49.674;10.716;2024-02-26T12:30:24;11.20;10.70
7902;DHT22;3996;49.674;10.716;2024-02-26T12:32:55;11.30;11.40
7902;DHT22;3996;49.674;10.716;2024-02-26T12:35:23;11.30;11.10
7902;DHT22;3996;49.674;10.716;2024-02-26T12:37:49;11.20;10.70
7902;DHT22;3996;49.674;10.716;2024-02-26T12:40:17;11.20;10.70
7902;DHT22;3996;49.674;10.716;2024-02-26T12:42:43;11.40;12.10
7902;DHT22;3996;49.674;10.716;2024-02-26T12:45:13;11.50;11.50
7902;DHT22;3996;49.674;10.716;2024-02-26T12:47:40;11.60;10.60
7902;DHT22;3996;49.674;10.716;2024-02-26T12:50:07;11.70;11.20
7902;DHT22;3996;49.674;10.716;2024-02-26T12:52:34;11.70;9.90
7902;DHT22;3996;49.674;10.716;2024-02-26T12:55:02;11.80;11.30
7902;DHT22;3996;49.674;10.716;2024-02-26T12:57:33;11.90;10.30
7902;DHT22;3996;49.674;10.716;2024-02-26T13:00:00;11.90;10.80
7902;DHT22;3996;49.674;10.716;2024-02-26T13:02:26;12.00;10.80
7902;DHT22;3996;49.674;10.716;2024-02-26T13:04:53;12.10;10.80
7902;DHT22;3996;49.674;10.716;2024-02-26T13:07:20;12.20;10.10
7902;DHT22;3996;49.674;10.716;2024-02-26T13:09:46;12.30;10.90
7902;DHT22;3996;49.674;10.716;2024-02-26T13:12:12;12.00;7.80
7902;DHT22;3996;49.674;10.716;2024-02-26T13:14:38;11.90;9.00
7902;DHT22;3996;49.674;10.716;2024-02-26T13:17:04;12.00;9.90
7902;DHT22;3996;49.674;10.716;2024-02-26T13:19:30;12.20;10.40
7902;DHT22;3996;49.674;10.716;2024-02-26T13:21:56;12.20;8.60
7902;DHT22;3996;49.674;10.716;2024-02-26T13:24:22;12.00;8.90
7902;DHT22;3996;49.674;10.716;2024-02-26T13:26:54;12.10;8.70
7902;DHT22;3996;49.674;10.716;2024-02-26T13:29:20;12.00;8.00
7902;DHT22;3996;49.674;10.716;2024-02-26T13:31:46;12.00;9.30
7902;DHT22;3996;49.674;10.716;2024-02-26T13:34:28;12.10;8.40
7902;DHT22;3996;49.674;10.716;2024-02-26T13:36:54;12.10;8.20
7902;DHT22;3996;49.674;10.716;2024-02-26T13:39:28;12.00;7.10
7902;DHT22;3996;49.674;10.716;2024-02-26T13:41:54;12.00;7.80
7902;DHT22;3996;49.674;10.716;2024-02-26T13:44:20;12.10;8.40
7902;DHT22;3996;49.674;10.716;2024-02-26T13:46:47;12.00;8.40
7902;DHT22;3996;49.674;10.716;2024-02-26T13:49:13;12.10;7.90
7902;DHT22;3996;49.674;10.716;2024-02-26T13:51:39;12.10;8.80
7902;DHT22;3996;49.674;10.716;2024-02-26T13:54:05;12.10;7.70
7902;DHT22;3996;49.674;10.716;2024-02-26T13:56:31;12.20;8.10
7902;DHT22;3996;49.674;10.716;2024-02-26T13:58:58;12.10;8.30
7902;DHT22;3996;49.674;10.716;2024-02-26T14:01:24;12.10;7.60
7902;DHT22;3996;49.674;10.716;2024-02-26T14:03:50;12.00;8.60
7902;DHT22;3996;49.674;10.716;2024-02-26T14:06:16;12.10;8.90
7902;DHT22;3996;49.674;10.716;2024-02-26T14:08:42;12.20;9.30
7902;DHT22;3996;49.674;10.716;2024-02-26T14:11:07;12.20;9.30
7902;DHT22;3996;49.674;10.716;2024-02-26T14:13:33;12.30;9.20
7902;DHT22;3996;49.674;10.716;2024-02-26T14:15:58;12.30;10.00
7902;DHT22;3996;49.674;10.716;2024-02-26T14:18:24;12.30;10.00
7902;DHT22;3996;49.674;10.716;2024-02-26T14:20:50;12.30;9.50
7902;DHT22;3996;49.674;10.716;2024-02-26T14:23:16;12.30;9.90
7902;DHT22;3996;49.674;10.716;2024-02-26T14:25:42;12.30;10.00
7902;DHT22;3996;49.674;10.716;2024-02-26T14:28:08;12.20;10.90
7902;DHT22;3996;49.674;10.716;2024-02-26T14:30:34;12.20;10.90
7902;DHT22;3996;49.674;10.716;2024-02-26T14:33:00;12.10;11.40
7902;DHT22;3996;49.674;10.716;2024-02-26T14:35:25;12.10;12.00
7902;DHT22;3996;49.674;10.716;2024-02-26T14:37:51;12.00;10.00
7902;DHT22;3996;49.674;10.716;2024-02-26T14:40:17;12.00;10.70
7902;DHT22;3996;49.674;10.716;2024-02-26T14:42:44;12.00;11.90
7902;DHT22;3996;49.674;10.716;2024-02-26T14:45:10;12.00;11.50
7902;DHT22;3996;49.674;10.716;2024-02-26T14:47:36;11.90;12.60
7902;DHT22;3996;49.674;10.716;2024-02-26T14:50:03;11.90;11.90
7902;DHT22;3996;49.674;10.716;2024-02-26T14:52:29;11.90;12.10
7902;DHT22;3996;49.674;10.716;2024-02-26T14:54:55;11.80;10.70
7902;DHT22;3996;49.674;10.716;2024-02-26T14:57:20;11.80;9.90
7902;DHT22;3996;49.674;10.716;2024-02-26T14:59:46;11.80;8.60
7902;DHT22;3996;49.674;10.716;2024-02-26T15:02:11;11.80;8.40
7902;DHT22;3996;49.674;10.716;2024-02-26T15:04:37;11.70;7.70
7902;DHT22;3996;49.674;10.716;2024-02-26T15:07:03;11.70;7.40
7902;DHT22;3996;49.674;10.716;2024-02-26T15:09:29;11.70;7.90
7902;DHT22;3996;49.674;10.716;2024-02-26T15:11:54;11.60;9.70
7902;DHT22;3996;49.674;10.716;2024-02-26T15:14:23;11.60;10.40
7902;DHT22;3996;49.674;10.716;2024-02-26T15:16:48;11.50;11.20
7902;DHT22;3996;49.674;10.716;2024-02-26T15:19:14;11.50;11.20
7902;DHT22;3996;49.674;10.716;2024-02-26T15:21:46;11.50;11.90
7902;DHT22;3996;49.674;10.716;2024-02-26T15:24:12;11.40;13.00
7902;DHT22;3996;49.674;10.716;2024-02-26T15:26:38;11.40;12.90
7902;DHT22;3996;49.674;10.716;2024-02-26T15:29:06;11.30;12.90
7902;DHT22;3996;49.674;10.716;2024-02-26T15:31:31;11.30;13.50
7902;DHT22;3996;49.674;10.716;2024-02-26T15:33:57;11.30;13.80
7902;DHT22;3996;49.674;10.716;2024-02-26T15:36:22;11.20;13.90
7902;DHT22;3996;49.674;10.716;2024-02-26T15:38:48;11.20;14.60
7902;DHT22;3996;49.674;10.716;2024-02-26T15:41:14;11.20;15.20
7902;DHT22;3996;49.674;10.716;2024-02-26T15:43:40;11.10;15.90
7902;DHT22;3996;49.674;10.716;2024-02-26T15:46:06;11.10;15.90
7902;DHT22;3996;49.674;10.716;2024-02-26T15:48:32;11.10;16.50
7902;DHT22;3996;49.674;10.716;2024-02-26T15:50:58;11.00;15.90
7902;DHT22;3996;49.674;10.716;2024-02-26T15:53:24;11.00;15.60
7902;DHT22;3996;49.674;10.716;2024-02-26T15:55:50;10.90;16.10
7902;DHT22;3996;49.674;10.716;2024-02-26T15:58:15;10.90;16.40